sensor_id;sensor_type;location;lat;lon;timestamp;P1;durP1;ratioP1;P2;durP2;ratioP2
78209;SDS011;67485;48.816;9.930;2023-02-25T00:00:24;4.70;;;2.20;;
78209;SDS011;67485;48.816;9.930;2023-02-25T00:02:50;5.38;;;2.30;;
78209;SDS011;67485;48.816;9.930;2023-02-25T00:05:16;4.30;;;2.15;;
78209;SDS011;67485;48.816;9.930;2023-02-25T00:07:43;5.18;;;2.65;;
78209;SDS011;67485;48.816;9.930;2023-02-25T00:10:10;5.53;;;2.83;;
78209;SDS011;67485;48.816;9.930;2023-02-25T00:12:37;6.90;;;3.05;;
78209;SDS011;67485;48.816;9.930;2023-02-25T00:15:04;4.45;;;3.20;;
78209;SDS011;67485;48.816;9.930;2023-02-25T00:17:31;6.10;;;3.45;;
78209;SDS011;67485;48.816;9.930;2023-02-25T00:19:57;7.68;;;3.60;;
78209;SDS011;67485;48.816;9.930;2023-02-25T00:22:23;5.87;;;3.77;;
78209;SDS011;67485;48.816;9.930;2023-02-25T00:24:52;5.72;;;3.65;;
78209;SDS011;67485;48.816;9.930;2023-02-25T00:27:19;5.50;;;3.78;;
78209;SDS011;67485;48.816;9.930;2023-02-25T00:29:46;6.35;;;4.25;;
78209;SDS011;67485;48.816;9.930;2023-02-25T00:32:16;6.88;;;4.20;;
78209;SDS011;67485;48.816;9.930;2023-02-25T00:34:42;7.80;;;4.07;;
78209;SDS011;67485;48.816;9.930;2023-02-25T00:37:08;7.05;;;3.78;;
78209;SDS011;67485;48.816;9.930;2023-02-25T00:39:33;6.13;;;4.03;;
78209;SDS011;67485;48.816;9.930;2023-02-25T00:42:14;6.50;;;3.92;;
78209;SDS011;67485;48.816;9.930;2023-02-25T00:44:42;7.35;;;4.13;;
78209;SDS011;67485;48.816;9.930;2023-02-25T00:47:09;8.50;;;4.20;;
78209;SDS011;67485;48.816;9.930;2023-02-25T00:49:36;9.07;;;4.47;;
78209;SDS011;67485;48.816;9.930;2023-02-25T00:52:02;8.90;;;4.20;;
78209;SDS011;67485;48.816;9.930;2023-02-25T00:54:28;7.57;;;4.20;;
78209;SDS011;67485;48.816;9.930;2023-02-25T00:56:54;7.67;;;4.60;;
78209;SDS011;67485;48.816;9.930;2023-02-25T00:59:20;7.60;;;4.60;;
78209;SDS011;67485;48.816;9.930;2023-02-25T01:01:45;9.43;;;4.63;;
78209;SDS011;67485;48.816;9.930;2023-02-25T01:04:12;8.13;;;4.65;;
78209;SDS011;67485;48.816;9.930;2023-02-25T01:06:38;7.13;;;4.43;;
78209;SDS011;67485;48.816;9.930;2023-02-25T01:09:05;10.02;;;4.47;;
78209;SDS011;67485;48.816;9.930;2023-02-25T01:11:38;9.82;;;4.85;;
78209;SDS011;67485;48.816;9.930;2023-02-25T01:14:07;8.87;;;4.83;;
78209;SDS011;67485;48.816;9.930;2023-02-25T01:16:35;9.40;;;4.47;;
78209;SDS011;67485;48.816;9.930;2023-02-25T01:19:04;8.95;;;5.10;;
78209;SDS011;67485;48.816;9.930;2023-02-25T01:21:33;8.77;;;5.07;;
78209;SDS011;67485;48.816;9.930;2023-02-25T01:24:04;8.48;;;5.10;;
78209;SDS011;67485;48.816;9.930;2023-02-25T01:26:32;9.50;;;5.17;;
78209;SDS011;67485;48.816;9.930;2023-02-25T01:28:59;9.25;;;5.25;;
78209;SDS011;67485;48.816;9.930;2023-02-25T01:31:26;8.27;;;4.80;;
78209;SDS011;67485;48.816;9.930;2023-02-25T01:33:59;10.75;;;5.07;;
78209;SDS011;67485;48.816;9.930;2023-02-25T01:36:26;8.35;;;4.63;;
78209;SDS011;67485;48.816;9.930;2023-02-25T01:38:53;8.43;;;4.47;;
78209;SDS011;67485;48.816;9.930;2023-02-25T01:41:20;10.55;;;4.43;;
78209;SDS011;67485;48.816;9.930;2023-02-25T01:46:30;7.95;;;4.53;;
78209;SDS011;67485;48.816;9.930;2023-02-25T01:48:56;9.57;;;4.57;;
78209;SDS011;67485;48.816;9.930;2023-02-25T01:51:22;8.90;;;4.75;;
78209;SDS011;67485;48.816;9.930;2023-02-25T01:53:52;11.10;;;4.10;;
78209;SDS011;67485;48.816;9.930;2023-02-25T01:56:20;7.30;;;4.57;;
78209;SDS011;67485;48.816;9.930;2023-02-25T01:58:51;9.20;;;4.80;;
78209;SDS011;67485;48.816;9.930;2023-02-25T02:01:19;10.80;;;4.87;;
78209;SDS011;67485;48.816;9.930;2023-02-25T02:03:48;9.43;;;4.80;;
78209;SDS011;67485;48.816;9.930;2023-02-25T02:06:23;7.43;;;4.30;;
78209;SDS011;67485;48.816;9.930;2023-02-25T02:08:52;9.73;;;4.57;;
78209;SDS011;67485;48.816;9.930;2023-02-25T02:11:19;9.23;;;4.63;;
78209;SDS011;67485;48.816;9.930;2023-02-25T02:13:48;7.80;;;4.60;;
78209;SDS011;67485;48.816;9.930;2023-02-25T02:19:20;9.18;;;4.47;;
78209;SDS011;67485;48.816;9.930;2023-02-25T02:32:04;9.60;;;4.20;;
78209;SDS011;67485;48.816;9.930;2023-02-25T02:37:38;8.30;;;4.30;;
78209;SDS011;67485;48.816;9.930;2023-02-25T02:43:08;8.32;;;4.35;;
78209;SDS011;67485;48.816;9.930;2023-02-25T02:46:02;7.50;;;4.07;;
78209;SDS011;67485;48.816;9.930;2023-02-25T02:48:38;6.32;;;3.83;;
78209;SDS011;67485;48.816;9.930;2023-02-25T02:51:16;6.53;;;4.00;;
78209;SDS011;67485;48.816;9.930;2023-02-25T02:53:51;9.20;;;4.25;;
78209;SDS011;67485;48.816;9.930;2023-02-25T02:56:20;8.52;;;3.80;;
78209;SDS011;67485;48.816;9.930;2023-02-25T02:58:50;8.60;;;4.00;;
78209;SDS011;67485;48.816;9.930;2023-02-25T03:01:25;7.90;;;3.95;;
78209;SDS011;67485;48.816;9.930;2023-02-25T03:04:01;6.25;;;3.70;;
78209;SDS011;67485;48.816;9.930;2023-02-25T03:06:40;7.25;;;3.55;;
78209;SDS011;67485;48.816;9.930;2023-02-25T03:09:14;6.15;;;3.20;;
78209;SDS011;67485;48.816;9.930;2023-02-25T03:11:43;6.32;;;3.08;;
78209;SDS011;67485;48.816;9.930;2023-02-25T03:14:10;7.78;;;3.20;;
78209;SDS011;67485;48.816;9.930;2023-02-25T03:16:39;7.47;;;2.57;;
78209;SDS011;67485;48.816;9.930;2023-02-25T03:21:49;5.00;;;2.10;;
78209;SDS011;67485;48.816;9.930;2023-02-25T03:24:24;5.10;;;1.98;;
78209;SDS011;67485;48.816;9.930;2023-02-25T03:26:53;4.05;;;1.63;;
78209;SDS011;67485;48.816;9.930;2023-02-25T03:29:22;5.00;;;1.83;;
78209;SDS011;67485;48.816;9.930;2023-02-25T03:31:54;7.07;;;1.70;;
78209;SDS011;67485;48.816;9.930;2023-02-25T03:34:32;4.90;;;1.75;;
78209;SDS011;67485;48.816;9.930;2023-02-25T03:37:25;3.47;;;1.55;;
78209;SDS011;67485;48.816;9.930;2023-02-25T03:39:55;3.83;;;1.70;;
78209;SDS011;67485;48.816;9.930;2023-02-25T03:42:30;6.60;;;1.80;;
78209;SDS011;67485;48.816;9.930;2023-02-25T03:44:59;3.95;;;1.90;;
78209;SDS011;67485;48.816;9.930;2023-02-25T03:47:29;3.78;;;1.90;;
78209;SDS011;67485;48.816;9.930;2023-02-25T03:50:20;7.07;;;1.90;;
78209;SDS011;67485;48.816;9.930;2023-02-25T03:52:51;5.95;;;2.17;;
78209;SDS011;67485;48.816;9.930;2023-02-25T03:55:52;7.30;;;2.47;;
78209;SDS011;67485;48.816;9.930;2023-02-25T03:58:18;6.53;;;2.50;;
78209;SDS011;67485;48.816;9.930;2023-02-25T04:00:45;7.32;;;2.55;;
78209;SDS011;67485;48.816;9.930;2023-02-25T04:03:13;8.18;;;2.55;;
78209;SDS011;67485;48.816;9.930;2023-02-25T04:05:38;5.80;;;2.80;;
78209;SDS011;67485;48.816;9.930;2023-02-25T04:08:04;6.22;;;2.50;;
78209;SDS011;67485;48.816;9.930;2023-02-25T04:10:43;4.32;;;2.35;;
78209;SDS011;67485;48.816;9.930;2023-02-25T04:13:10;6.60;;;2.38;;
78209;SDS011;67485;48.816;9.930;2023-02-25T04:15:37;4.57;;;2.10;;
78209;SDS011;67485;48.816;9.930;2023-02-25T04:18:03;5.72;;;2.17;;
78209;SDS011;67485;48.816;9.930;2023-02-25T04:20:29;5.85;;;2.30;;
78209;SDS011;67485;48.816;9.930;2023-02-25T04:22:55;5.28;;;2.38;;
78209;SDS011;67485;48.816;9.930;2023-02-25T04:25:21;5.47;;;2.60;;
78209;SDS011;67485;48.816;9.930;2023-02-25T04:27:46;5.35;;;2.75;;
78209;SDS011;67485;48.816;9.930;2023-02-25T04:30:12;9.40;;;2.77;;
78209;SDS011;67485;48.816;9.930;2023-02-25T04:32:39;4.40;;;2.15;;
78209;SDS011;67485;48.816;9.930;2023-02-25T04:35:05;6.43;;;1.90;;
78209;SDS011;67485;48.816;9.930;2023-02-25T04:37:34;7.03;;;2.38;;
78209;SDS011;67485;48.816;9.930;2023-02-25T04:39:59;6.60;;;2.00;;
78209;SDS011;67485;48.816;9.930;2023-02-25T04:42:25;6.70;;;2.00;;
78209;SDS011;67485;48.816;9.930;2023-02-25T04:44:50;7.97;;;1.83;;
78209;SDS011;67485;48.816;9.930;2023-02-25T04:47:16;4.38;;;1.70;;
78209;SDS011;67485;48.816;9.930;2023-02-25T04:49:43;9.38;;;1.73;;
78209;SDS011;67485;48.816;9.930;2023-02-25T04:52:10;8.43;;;1.80;;
78209;SDS011;67485;48.816;9.930;2023-02-25T04:54:37;7.55;;;1.75;;
78209;SDS011;67485;48.816;9.930;2023-02-25T04:57:02;5.93;;;1.70;;
78209;SDS011;67485;48.816;9.930;2023-02-25T04:59:28;6.60;;;1.90;;
78209;SDS011;67485;48.816;9.930;2023-02-25T05:01:54;6.93;;;1.90;;
78209;SDS011;67485;48.816;9.930;2023-02-25T05:04:19;8.43;;;2.17;;
78209;SDS011;67485;48.816;9.930;2023-02-25T05:06:45;6.57;;;2.38;;
78209;SDS011;67485;48.816;9.930;2023-02-25T05:09:11;7.30;;;1.90;;
78209;SDS011;67485;48.816;9.930;2023-02-25T05:11:36;5.78;;;2.40;;
78209;SDS011;67485;48.816;9.930;2023-02-25T05:14:02;5.27;;;2.27;;
78209;SDS011;67485;48.816;9.930;2023-02-25T05:16:28;6.43;;;2.53;;
78209;SDS011;67485;48.816;9.930;2023-02-25T05:18:53;6.67;;;1.93;;
78209;SDS011;67485;48.816;9.930;2023-02-25T05:21:20;7.13;;;2.30;;
78209;SDS011;67485;48.816;9.930;2023-02-25T05:23:48;8.63;;;2.15;;
78209;SDS011;67485;48.816;9.930;2023-02-25T05:26:16;5.35;;;1.80;;
78209;SDS011;67485;48.816;9.930;2023-02-25T05:28:49;4.55;;;1.88;;
78209;SDS011;67485;48.816;9.930;2023-02-25T05:31:16;6.85;;;2.40;;
78209;SDS011;67485;48.816;9.930;2023-02-25T05:33:42;5.97;;;2.05;;
78209;SDS011;67485;48.816;9.930;2023-02-25T05:36:08;5.37;;;1.80;;
78209;SDS011;67485;48.816;9.930;2023-02-25T05:38:36;7.90;;;1.80;;
78209;SDS011;67485;48.816;9.930;2023-02-25T05:41:03;9.45;;;1.90;;
78209;SDS011;67485;48.816;9.930;2023-02-25T05:43:31;8.52;;;2.03;;
78209;SDS011;67485;48.816;9.930;2023-02-25T05:45:57;5.57;;;1.83;;
78209;SDS011;67485;48.816;9.930;2023-02-25T05:48:24;6.00;;;1.88;;
78209;SDS011;67485;48.816;9.930;2023-02-25T05:50:50;7.35;;;2.30;;
78209;SDS011;67485;48.816;9.930;2023-02-25T05:53:17;4.88;;;1.88;;
78209;SDS011;67485;48.816;9.930;2023-02-25T05:55:43;5.78;;;1.98;;
78209;SDS011;67485;48.816;9.930;2023-02-25T05:58:09;4.13;;;1.88;;
78209;SDS011;67485;48.816;9.930;2023-02-25T06:00:36;5.57;;;2.08;;
78209;SDS011;67485;48.816;9.930;2023-02-25T06:03:02;6.50;;;1.90;;
78209;SDS011;67485;48.816;9.930;2023-02-25T06:05:28;5.05;;;1.52;;
78209;SDS011;67485;48.816;9.930;2023-02-25T06:07:57;7.60;;;1.80;;
78209;SDS011;67485;48.816;9.930;2023-02-25T06:10:24;6.18;;;1.80;;
78209;SDS011;67485;48.816;9.930;2023-02-25T06:12:50;7.70;;;1.75;;
78209;SDS011;67485;48.816;9.930;2023-02-25T06:15:17;5.20;;;1.48;;
78209;SDS011;67485;48.816;9.930;2023-02-25T06:17:43;8.33;;;1.73;;
78209;SDS011;67485;48.816;9.930;2023-02-25T06:20:09;6.85;;;1.52;;
78209;SDS011;67485;48.816;9.930;2023-02-25T06:22:35;4.53;;;1.63;;
78209;SDS011;67485;48.816;9.930;2023-02-25T06:25:01;6.77;;;1.70;;
78209;SDS011;67485;48.816;9.930;2023-02-25T06:27:27;6.32;;;1.58;;
78209;SDS011;67485;48.816;9.930;2023-02-25T06:29:54;7.32;;;1.60;;
78209;SDS011;67485;48.816;9.930;2023-02-25T06:32:19;7.70;;;1.75;;
78209;SDS011;67485;48.816;9.930;2023-02-25T06:34:45;4.57;;;1.40;;
78209;SDS011;67485;48.816;9.930;2023-02-25T06:37:11;3.80;;;1.30;;
78209;SDS011;67485;48.816;9.930;2023-02-25T06:39:36;4.20;;;1.30;;
78209;SDS011;67485;48.816;9.930;2023-02-25T06:42:02;3.80;;;1.20;;
78209;SDS011;67485;48.816;9.930;2023-02-25T06:44:28;9.02;;;1.20;;
78209;SDS011;67485;48.816;9.930;2023-02-25T06:46:54;2.42;;;1.13;;
78209;SDS011;67485;48.816;9.930;2023-02-25T06:49:21;5.25;;;1.17;;
78209;SDS011;67485;48.816;9.930;2023-02-25T06:51:48;3.20;;;1.10;;
78209;SDS011;67485;48.816;9.930;2023-02-25T06:54:15;9.65;;;1.88;;
78209;SDS011;67485;48.816;9.930;2023-02-25T06:56:41;4.18;;;1.20;;
78209;SDS011;67485;48.816;9.930;2023-02-25T06:59:07;4.90;;;1.30;;
78209;SDS011;67485;48.816;9.930;2023-02-25T07:01:33;5.70;;;1.13;;
78209;SDS011;67485;48.816;9.930;2023-02-25T07:03:58;4.97;;;1.23;;
78209;SDS011;67485;48.816;9.930;2023-02-25T07:06:24;6.20;;;1.20;;
78209;SDS011;67485;48.816;9.930;2023-02-25T07:08:50;3.78;;;1.00;;
78209;SDS011;67485;48.816;9.930;2023-02-25T07:13:41;8.90;;;1.40;;
78209;SDS011;67485;48.816;9.930;2023-02-25T07:16:07;4.70;;;0.98;;
78209;SDS011;67485;48.816;9.930;2023-02-25T07:18:33;6.05;;;1.10;;
78209;SDS011;67485;48.816;9.930;2023-02-25T07:20:59;2.33;;;0.80;;
78209;SDS011;67485;48.816;9.930;2023-02-25T07:23:25;5.32;;;0.80;;
78209;SDS011;67485;48.816;9.930;2023-02-25T07:25:50;4.60;;;1.00;;
78209;SDS011;67485;48.816;9.930;2023-02-25T07:28:16;6.05;;;0.85;;
78209;SDS011;67485;48.816;9.930;2023-02-25T07:30:42;4.43;;;1.03;;
78209;SDS011;67485;48.816;9.930;2023-02-25T07:33:07;5.25;;;0.88;;
78209;SDS011;67485;48.816;9.930;2023-02-25T07:35:33;2.97;;;0.90;;
78209;SDS011;67485;48.816;9.930;2023-02-25T07:37:59;3.35;;;0.80;;
78209;SDS011;67485;48.816;9.930;2023-02-25T07:40:25;3.70;;;0.90;;
78209;SDS011;67485;48.816;9.930;2023-02-25T07:42:50;4.53;;;0.80;;
78209;SDS011;67485;48.816;9.930;2023-02-25T07:45:19;4.15;;;0.80;;
78209;SDS011;67485;48.816;9.930;2023-02-25T07:47:45;7.03;;;1.10;;
78209;SDS011;67485;48.816;9.930;2023-02-25T07:50:11;3.25;;;0.73;;
78209;SDS011;67485;48.816;9.930;2023-02-25T07:52:37;4.37;;;1.10;;
78209;SDS011;67485;48.816;9.930;2023-02-25T07:55:03;6.65;;;1.08;;
78209;SDS011;67485;48.816;9.930;2023-02-25T07:57:29;3.03;;;0.68;;
78209;SDS011;67485;48.816;9.930;2023-02-25T07:59:55;5.38;;;1.00;;
78209;SDS011;67485;48.816;9.930;2023-02-25T08:02:23;4.53;;;0.90;;
78209;SDS011;67485;48.816;9.930;2023-02-25T08:04:49;4.22;;;0.75;;
78209;SDS011;67485;48.816;9.930;2023-02-25T08:07:15;7.13;;;1.20;;
78209;SDS011;67485;48.816;9.930;2023-02-25T08:09:41;5.10;;;1.00;;
78209;SDS011;67485;48.816;9.930;2023-02-25T08:12:07;6.70;;;1.20;;
78209;SDS011;67485;48.816;9.930;2023-02-25T08:14:33;5.20;;;0.90;;
78209;SDS011;67485;48.816;9.930;2023-02-25T08:16:59;5.90;;;1.02;;
78209;SDS011;67485;48.816;9.930;2023-02-25T08:19:26;4.87;;;1.30;;
78209;SDS011;67485;48.816;9.930;2023-02-25T08:21:52;5.07;;;0.90;;
78209;SDS011;67485;48.816;9.930;2023-02-25T08:24:20;5.20;;;0.82;;
78209;SDS011;67485;48.816;9.930;2023-02-25T08:26:47;4.55;;;1.30;;
78209;SDS011;67485;48.816;9.930;2023-02-25T08:29:13;5.32;;;1.45;;
78209;SDS011;67485;48.816;9.930;2023-02-25T08:31:38;5.70;;;1.23;;
78209;SDS011;67485;48.816;9.930;2023-02-25T08:34:04;5.68;;;1.20;;
78209;SDS011;67485;48.816;9.930;2023-02-25T08:36:30;4.43;;;1.30;;
78209;SDS011;67485;48.816;9.930;2023-02-25T08:38:56;8.83;;;1.43;;
78209;SDS011;67485;48.816;9.930;2023-02-25T08:41:24;4.90;;;1.20;;
78209;SDS011;67485;48.816;9.930;2023-02-25T08:43:51;6.05;;;1.40;;
78209;SDS011;67485;48.816;9.930;2023-02-25T08:46:22;12.00;;;1.60;;
78209;SDS011;67485;48.816;9.930;2023-02-25T08:48:49;4.13;;;1.17;;
78209;SDS011;67485;48.816;9.930;2023-02-25T08:51:16;5.87;;;1.30;;
78209;SDS011;67485;48.816;9.930;2023-02-25T08:53:43;6.50;;;1.23;;
78209;SDS011;67485;48.816;9.930;2023-02-25T08:56:09;10.48;;;1.80;;
78209;SDS011;67485;48.816;9.930;2023-02-25T08:58:36;6.17;;;0.97;;
78209;SDS011;67485;48.816;9.930;2023-02-25T09:01:07;3.80;;;0.80;;
78209;SDS011;67485;48.816;9.930;2023-02-25T09:03:37;6.32;;;0.90;;
78209;SDS011;67485;48.816;9.930;2023-02-25T09:06:04;5.65;;;1.05;;
78209;SDS011;67485;48.816;9.930;2023-02-25T09:08:30;6.90;;;1.17;;
78209;SDS011;67485;48.816;9.930;2023-02-25T09:10:56;3.63;;;1.03;;
78209;SDS011;67485;48.816;9.930;2023-02-25T09:13:21;4.87;;;0.87;;
78209;SDS011;67485;48.816;9.930;2023-02-25T09:15:56;4.30;;;1.00;;
78209;SDS011;67485;48.816;9.930;2023-02-25T09:18:22;3.55;;;1.10;;
78209;SDS011;67485;48.816;9.930;2023-02-25T09:20:49;4.83;;;0.90;;
78209;SDS011;67485;48.816;9.930;2023-02-25T09:23:16;6.20;;;0.90;;
78209;SDS011;67485;48.816;9.930;2023-02-25T09:25:42;4.80;;;0.98;;
78209;SDS011;67485;48.816;9.930;2023-02-25T09:28:09;9.70;;;1.23;;
78209;SDS011;67485;48.816;9.930;2023-02-25T09:30:35;5.35;;;1.05;;
78209;SDS011;67485;48.816;9.930;2023-02-25T09:33:01;3.35;;;0.75;;
78209;SDS011;67485;48.816;9.930;2023-02-25T09:35:27;4.57;;;1.17;;
78209;SDS011;67485;48.816;9.930;2023-02-25T09:37:52;4.65;;;1.02;;
78209;SDS011;67485;48.816;9.930;2023-02-25T09:40:18;3.00;;;0.93;;
78209;SDS011;67485;48.816;9.930;2023-02-25T09:45:28;5.18;;;1.20;;
78209;SDS011;67485;48.816;9.930;2023-02-25T09:47:58;3.20;;;0.70;;
78209;SDS011;67485;48.816;9.930;2023-02-25T09:50:45;7.00;;;0.95;;
78209;SDS011;67485;48.816;9.930;2023-02-25T09:53:24;5.78;;;1.23;;
78209;SDS011;67485;48.816;9.930;2023-02-25T09:55:55;3.00;;;0.95;;
78209;SDS011;67485;48.816;9.930;2023-02-25T10:24:42;3.78;;;0.80;;
78209;SDS011;67485;48.816;9.930;2023-02-25T10:29:47;1.40;;;0.70;;
78209;SDS011;67485;48.816;9.930;2023-02-25T10:32:17;2.97;;;0.70;;
78209;SDS011;67485;48.816;9.930;2023-02-25T10:34:46;4.07;;;0.70;;
78209;SDS011;67485;48.816;9.930;2023-02-25T10:37:18;3.10;;;0.82;;
78209;SDS011;67485;48.816;9.930;2023-02-25T10:39:53;4.00;;;0.60;;
78209;SDS011;67485;48.816;9.930;2023-02-25T10:42:22;1.80;;;0.70;;
78209;SDS011;67485;48.816;9.930;2023-02-25T10:44:48;3.43;;;0.70;;
78209;SDS011;67485;48.816;9.930;2023-02-25T10:47:34;1.88;;;0.60;;
78209;SDS011;67485;48.816;9.930;2023-02-25T10:50:09;4.47;;;0.70;;
78209;SDS011;67485;48.816;9.930;2023-02-25T10:52:51;4.32;;;0.70;;
78209;SDS011;67485;48.816;9.930;2023-02-25T10:55:32;5.43;;;0.70;;
78209;SDS011;67485;48.816;9.930;2023-02-25T10:58:03;6.23;;;0.80;;
78209;SDS011;67485;48.816;9.930;2023-02-25T11:00:31;4.65;;;0.82;;
78209;SDS011;67485;48.816;9.930;2023-02-25T11:02:59;9.13;;;1.13;;
78209;SDS011;67485;48.816;9.930;2023-02-25T11:05:30;11.45;;;1.42;;
78209;SDS011;67485;48.816;9.930;2023-02-25T11:08:00;10.07;;;1.20;;
78209;SDS011;67485;48.816;9.930;2023-02-25T11:10:31;3.83;;;0.80;;
78209;SDS011;67485;48.816;9.930;2023-02-25T11:12:56;12.70;;;1.40;;
78209;SDS011;67485;48.816;9.930;2023-02-25T11:18:06;7.30;;;0.90;;
78209;SDS011;67485;48.816;9.930;2023-02-25T11:20:40;5.93;;;0.90;;
78209;SDS011;67485;48.816;9.930;2023-02-25T11:23:19;2.45;;;0.60;;
78209;SDS011;67485;48.816;9.930;2023-02-25T11:25:48;6.65;;;1.13;;
78209;SDS011;67485;48.816;9.930;2023-02-25T11:30:48;6.87;;;0.80;;
78209;SDS011;67485;48.816;9.930;2023-02-25T11:33:21;5.07;;;0.80;;
78209;SDS011;67485;48.816;9.930;2023-02-25T11:35:54;3.30;;;0.90;;
78209;SDS011;67485;48.816;9.930;2023-02-25T11:38:31;6.07;;;0.90;;
78209;SDS011;67485;48.816;9.930;2023-02-25T11:40:59;3.23;;;0.80;;
78209;SDS011;67485;48.816;9.930;2023-02-25T11:43:26;4.43;;;1.10;;
78209;SDS011;67485;48.816;9.930;2023-02-25T11:45:59;3.10;;;0.70;;
78209;SDS011;67485;48.816;9.930;2023-02-25T11:51:25;3.80;;;1.45;;
78209;SDS011;67485;48.816;9.930;2023-02-25T11:56:41;3.17;;;0.70;;
78209;SDS011;67485;48.816;9.930;2023-02-25T12:08:08;5.77;;;0.80;;
78209;SDS011;67485;48.816;9.930;2023-02-25T12:22:11;4.28;;;0.88;;
78209;SDS011;67485;48.816;9.930;2023-02-25T12:30:34;2.88;;;0.73;;
78209;SDS011;67485;48.816;9.930;2023-02-25T12:33:36;3.53;;;1.08;;
78209;SDS011;67485;48.816;9.930;2023-02-25T12:47:10;3.92;;;0.90;;
78209;SDS011;67485;48.816;9.930;2023-02-25T12:49:43;3.73;;;1.00;;
78209;SDS011;67485;48.816;9.930;2023-02-25T12:52:30;3.08;;;1.00;;
78209;SDS011;67485;48.816;9.930;2023-02-25T12:57:45;2.63;;;0.80;;
78209;SDS011;67485;48.816;9.930;2023-02-25T13:03:12;5.30;;;1.37;;
78209;SDS011;67485;48.816;9.930;2023-02-25T13:16:30;4.17;;;1.10;;
78209;SDS011;67485;48.816;9.930;2023-02-25T13:27:13;4.45;;;1.30;;
78209;SDS011;67485;48.816;9.930;2023-02-25T13:29:53;6.95;;;1.88;;
78209;SDS011;67485;48.816;9.930;2023-02-25T13:32:33;5.27;;;2.40;;
78209;SDS011;67485;48.816;9.930;2023-02-25T13:35:24;3.92;;;1.40;;
78209;SDS011;67485;48.816;9.930;2023-02-25T13:40:57;33.53;;;15.75;;
78209;SDS011;67485;48.816;9.930;2023-02-25T13:52:25;26.27;;;10.95;;
78209;SDS011;67485;48.816;9.930;2023-02-25T13:55:05;11.53;;;4.57;;
78209;SDS011;67485;48.816;9.930;2023-02-25T14:13:15;12.13;;;5.68;;
78209;SDS011;67485;48.816;9.930;2023-02-25T14:26:37;4.88;;;2.40;;
78209;SDS011;67485;48.816;9.930;2023-02-25T14:40:37;7.32;;;2.92;;
78209;SDS011;67485;48.816;9.930;2023-02-25T14:48:40;5.95;;;1.60;;
78209;SDS011;67485;48.816;9.930;2023-02-25T14:56:24;6.22;;;2.85;;
78209;SDS011;67485;48.816;9.930;2023-02-25T15:14:06;8.88;;;3.95;;
78209;SDS011;67485;48.816;9.930;2023-02-25T15:22:34;5.07;;;1.90;;
78209;SDS011;67485;48.816;9.930;2023-02-25T15:27:49;12.68;;;6.72;;
78209;SDS011;67485;48.816;9.930;2023-02-25T15:30:17;5.88;;;2.60;;
78209;SDS011;67485;48.816;9.930;2023-02-25T15:32:45;10.13;;;4.95;;
78209;SDS011;67485;48.816;9.930;2023-02-25T15:35:21;8.35;;;4.22;;
78209;SDS011;67485;48.816;9.930;2023-02-25T15:38:17;6.65;;;2.50;;
78209;SDS011;67485;48.816;9.930;2023-02-25T15:40:45;13.05;;;8.05;;
78209;SDS011;67485;48.816;9.930;2023-02-25T15:45:40;9.80;;;6.20;;
78209;SDS011;67485;48.816;9.930;2023-02-25T15:55:49;5.55;;;0.98;;
78209;SDS011;67485;48.816;9.930;2023-02-25T15:58:42;4.13;;;1.00;;
78209;SDS011;67485;48.816;9.930;2023-02-25T16:01:28;2.70;;;1.00;;
78209;SDS011;67485;48.816;9.930;2023-02-25T16:07:11;3.10;;;1.10;;
78209;SDS011;67485;48.816;9.930;2023-02-25T16:09:40;2.63;;;1.15;;
78209;SDS011;67485;48.816;9.930;2023-02-25T16:12:13;3.70;;;1.25;;
78209;SDS011;67485;48.816;9.930;2023-02-25T16:14:40;6.90;;;2.47;;
78209;SDS011;67485;48.816;9.930;2023-02-25T16:17:18;4.05;;;1.15;;
78209;SDS011;67485;48.816;9.930;2023-02-25T16:19:51;2.08;;;0.90;;
78209;SDS011;67485;48.816;9.930;2023-02-25T16:22:21;2.42;;;1.00;;
78209;SDS011;67485;48.816;9.930;2023-02-25T16:24:52;2.55;;;1.23;;
78209;SDS011;67485;48.816;9.930;2023-02-25T16:29:58;2.33;;;0.90;;
78209;SDS011;67485;48.816;9.930;2023-02-25T16:37:48;4.82;;;2.20;;
78209;SDS011;67485;48.816;9.930;2023-02-25T16:40:37;4.00;;;2.00;;
78209;SDS011;67485;48.816;9.930;2023-02-25T16:43:05;4.22;;;2.03;;
78209;SDS011;67485;48.816;9.930;2023-02-25T16:45:40;3.53;;;1.70;;
78209;SDS011;67485;48.816;9.930;2023-02-25T16:48:18;4.85;;;1.70;;
78209;SDS011;67485;48.816;9.930;2023-02-25T16:50:51;4.10;;;1.70;;
78209;SDS011;67485;48.816;9.930;2023-02-25T16:53:20;6.65;;;3.05;;
78209;SDS011;67485;48.816;9.930;2023-02-25T16:55:49;7.13;;;3.13;;
78209;SDS011;67485;48.816;9.930;2023-02-25T16:58:23;14.88;;;5.70;;
78209;SDS011;67485;48.816;9.930;2023-02-25T17:00:57;31.33;;;10.50;;
78209;SDS011;67485;48.816;9.930;2023-02-25T17:03:26;50.53;;;15.65;;
78209;SDS011;67485;48.816;9.930;2023-02-25T17:06:05;16.80;;;6.78;;
78209;SDS011;67485;48.816;9.930;2023-02-25T17:08:43;9.02;;;3.80;;
78209;SDS011;67485;48.816;9.930;2023-02-25T17:11:17;14.70;;;5.43;;
78209;SDS011;67485;48.816;9.930;2023-02-25T17:13:44;6.53;;;3.03;;
78209;SDS011;67485;48.816;9.930;2023-02-25T17:16:20;5.70;;;2.70;;
78209;SDS011;67485;48.816;9.930;2023-02-25T17:19:01;5.15;;;2.20;;
78209;SDS011;67485;48.816;9.930;2023-02-25T17:21:39;9.20;;;3.40;;
78209;SDS011;67485;48.816;9.930;2023-02-25T17:24:12;10.52;;;5.35;;
78209;SDS011;67485;48.816;9.930;2023-02-25T17:26:41;8.52;;;4.38;;
78209;SDS011;67485;48.816;9.930;2023-02-25T17:29:10;6.10;;;2.80;;
78209;SDS011;67485;48.816;9.930;2023-02-25T17:31:55;6.13;;;2.85;;
78209;SDS011;67485;48.816;9.930;2023-02-25T17:34:27;5.40;;;2.50;;
78209;SDS011;67485;48.816;9.930;2023-02-25T17:36:56;5.80;;;2.45;;
78209;SDS011;67485;48.816;9.930;2023-02-25T17:39:25;5.53;;;2.25;;
78209;SDS011;67485;48.816;9.930;2023-02-25T17:41:54;4.15;;;2.60;;
78209;SDS011;67485;48.816;9.930;2023-02-25T17:47:01;9.73;;;5.07;;
78209;SDS011;67485;48.816;9.930;2023-02-25T17:49:28;3.50;;;1.80;;
78209;SDS011;67485;48.816;9.930;2023-02-25T17:51:57;4.47;;;2.80;;
78209;SDS011;67485;48.816;9.930;2023-02-25T17:54:26;4.97;;;2.42;;
78209;SDS011;67485;48.816;9.930;2023-02-25T17:56:58;2.33;;;1.08;;
78209;SDS011;67485;48.816;9.930;2023-02-25T18:06:57;3.43;;;1.53;;
78209;SDS011;67485;48.816;9.930;2023-02-25T18:09:27;3.83;;;1.40;;
78209;SDS011;67485;48.816;9.930;2023-02-25T18:11:59;6.13;;;2.20;;
78209;SDS011;67485;48.816;9.930;2023-02-25T18:16:58;12.63;;;5.83;;
78209;SDS011;67485;48.816;9.930;2023-02-25T18:19:34;15.00;;;5.63;;
78209;SDS011;67485;48.816;9.930;2023-02-25T18:22:03;16.15;;;5.85;;
78209;SDS011;67485;48.816;9.930;2023-02-25T18:24:32;9.13;;;3.30;;
78209;SDS011;67485;48.816;9.930;2023-02-25T18:27:02;6.70;;;3.20;;
78209;SDS011;67485;48.816;9.930;2023-02-25T18:29:33;10.17;;;3.13;;
78209;SDS011;67485;48.816;9.930;2023-02-25T18:31:59;7.22;;;3.20;;
78209;SDS011;67485;48.816;9.930;2023-02-25T18:34:25;7.70;;;3.22;;
78209;SDS011;67485;48.816;9.930;2023-02-25T18:36:50;8.53;;;2.90;;
78209;SDS011;67485;48.816;9.930;2023-02-25T18:39:17;8.70;;;3.47;;
78209;SDS011;67485;48.816;9.930;2023-02-25T18:41:44;17.45;;;7.10;;
78209;SDS011;67485;48.816;9.930;2023-02-25T18:44:13;13.67;;;6.37;;
78209;SDS011;67485;48.816;9.930;2023-02-25T18:46:39;8.18;;;3.63;;
78209;SDS011;67485;48.816;9.930;2023-02-25T18:49:04;6.10;;;3.03;;
78209;SDS011;67485;48.816;9.930;2023-02-25T18:51:30;6.63;;;3.57;;
78209;SDS011;67485;48.816;9.930;2023-02-25T18:53:56;8.90;;;3.95;;
78209;SDS011;67485;48.816;9.930;2023-02-25T18:56:22;8.67;;;3.30;;
78209;SDS011;67485;48.816;9.930;2023-02-25T18:58:48;7.60;;;3.42;;
78209;SDS011;67485;48.816;9.930;2023-02-25T19:01:16;9.30;;;4.80;;
78209;SDS011;67485;48.816;9.930;2023-02-25T19:03:45;21.60;;;12.88;;
78209;SDS011;67485;48.816;9.930;2023-02-25T19:06:12;10.20;;;5.88;;
78209;SDS011;67485;48.816;9.930;2023-02-25T19:08:38;7.07;;;4.28;;